sensor_id;sensor_type;location;lat;lon;timestamp;temperature;humidity
19397;DHT22;9834;48.076;11.878;2022-12-08T00:01:04;1.30;99.90
19397;DHT22;9834;48.076;11.878;2022-12-08T00:03:31;1.20;99.90
19397;DHT22;9834;48.076;11.878;2022-12-08T00:05:58;1.30;99.90
19397;DHT22;9834;48.076;11.878;2022-12-08T00:08:43;1.20;99.90
19397;DHT22;9834;48.076;11.878;2022-12-08T00:11:27;1.20;99.90
19397;DHT22;9834;48.076;11.878;2022-12-08T00:13:55;1.20;99.90
19397;DHT22;9834;48.076;11.878;2022-12-08T00:16:22;1.10;99.90
19397;DHT22;9834;48.076;11.878;2022-12-08T00:18:49;1.10;99.90
19397;DHT22;9834;48.076;11.878;2022-12-08T00:21:16;1.10;99.90
19397;DHT22;9834;48.076;11.878;2022-12-08T00:23:43;1.10;99.90
19397;DHT22;9834;48.076;11.878;2022-12-08T00:26:10;1.10;99.90
19397;DHT22;9834;48.076;11.878;2022-12-08T00:28:36;1.10;99.90
19397;DHT22;9834;48.076;11.878;2022-12-08T00:31:08;1.20;99.90
19397;DHT22;9834;48.076;11.878;2022-12-08T00:33:35;1.20;99.90
19397;DHT22;9834;48.076;11.878;2022-12-08T00:36:05;1.20;99.90
19397;DHT22;9834;48.076;11.878;2022-12-08T00:38:32;1.20;99.90
19397;DHT22;9834;48.076;11.878;2022-12-08T00:40:59;1.10;99.90
19397;DHT22;9834;48.076;11.878;2022-12-08T00:43:26;1.10;99.90
19397;DHT22;9834;48.076;11.878;2022-12-08T00:45:53;1.20;99.90
19397;DHT22;9834;48.076;11.878;2022-12-08T00:48:21;1.20;99.90
19397;DHT22;9834;48.076;11.878;2022-12-08T00:50:48;1.20;99.90
19397;DHT22;9834;48.076;11.878;2022-12-08T00:53:15;1.20;99.90
19397;DHT22;9834;48.076;11.878;2022-12-08T00:55:42;1.10;99.90
19397;DHT22;9834;48.076;11.878;2022-12-08T00:58:09;1.10;99.90
19397;DHT22;9834;48.076;11.878;2022-12-08T01:00:39;1.10;99.90
19397;DHT22;9834;48.076;11.878;2022-12-08T01:03:08;1.10;99.90
19397;DHT22;9834;48.076;11.878;2022-12-08T01:05:36;1.10;99.90
19397;DHT22;9834;48.076;11.878;2022-12-08T01:08:04;1.10;99.90
19397;DHT22;9834;48.076;11.878;2022-12-08T01:10:33;1.10;99.90
19397;DHT22;9834;48.076;11.878;2022-12-08T01:13:00;1.10;99.90
19397;DHT22;9834;48.076;11.878;2022-12-08T01:15:27;1.20;99.90
19397;DHT22;9834;48.076;11.878;2022-12-08T01:17:54;1.10;99.90
19397;DHT22;9834;48.076;11.878;2022-12-08T01:20:21;1.10;99.90
19397;DHT22;9834;48.076;11.878;2022-12-08T01:22:49;1.10;99.90
19397;DHT22;9834;48.076;11.878;2022-12-08T01:25:16;1.20;99.90
19397;DHT22;9834;48.076;11.878;2022-12-08T01:27:43;1.20;99.90
19397;DHT22;9834;48.076;11.878;2022-12-08T01:30:11;1.30;99.90
19397;DHT22;9834;48.076;11.878;2022-12-08T01:32:38;1.20;99.90
19397;DHT22;9834;48.076;11.878;2022-12-08T01:35:05;1.10;99.90
19397;DHT22;9834;48.076;11.878;2022-12-08T01:37:32;1.10;99.90
19397;DHT22;9834;48.076;11.878;2022-12-08T01:40:01;1.10;99.90
19397;DHT22;9834;48.076;11.878;2022-12-08T01:42:28;1.20;99.90
19397;DHT22;9834;48.076;11.878;2022-12-08T01:44:58;1.20;99.90
19397;DHT22;9834;48.076;11.878;2022-12-08T01:47:32;1.20;99.90
19397;DHT22;9834;48.076;11.878;2022-12-08T01:50:01;1.10;99.90
19397;DHT22;9834;48.076;11.878;2022-12-08T01:52:31;1.20;99.90
19397;DHT22;9834;48.076;11.878;2022-12-08T01:55:03;1.10;99.90
19397;DHT22;9834;48.076;11.878;2022-12-08T01:57:35;1.10;99.90
19397;DHT22;9834;48.076;11.878;2022-12-08T02:00:08;1.10;99.90
19397;DHT22;9834;48.076;11.878;2022-12-08T02:02:41;1.10;99.90
19397;DHT22;9834;48.076;11.878;2022-12-08T02:05:10;1.10;99.90
19397;DHT22;9834;48.076;11.878;2022-12-08T02:07:38;1.10;99.90
19397;DHT22;9834;48.076;11.878;2022-12-08T02:10:08;1.10;99.90
19397;DHT22;9834;48.076;11.878;2022-12-08T02:12:36;1.10;99.90
19397;DHT22;9834;48.076;11.878;2022-12-08T02:15:03;1.10;99.90
19397;DHT22;9834;48.076;11.878;2022-12-08T02:17:44;1.10;99.90
19397;DHT22;9834;48.076;11.878;2022-12-08T02:23:14;1.10;99.90
19397;DHT22;9834;48.076;11.878;2022-12-08T02:26:03;1.10;99.90
19397;DHT22;9834;48.076;11.878;2022-12-08T02:29:02;1.00;99.90
19397;DHT22;9834;48.076;11.878;2022-12-08T02:31:41;1.00;99.90
19397;DHT22;9834;48.076;11.878;2022-12-08T02:34:19;1.00;99.90
19397;DHT22;9834;48.076;11.878;2022-12-08T02:36:57;1.00;99.90
19397;DHT22;9834;48.076;11.878;2022-12-08T02:39:33;0.90;99.90
19397;DHT22;9834;48.076;11.878;2022-12-08T02:42:07;0.90;99.90
19397;DHT22;9834;48.076;11.878;2022-12-08T02:44:40;1.00;99.90
19397;DHT22;9834;48.076;11.878;2022-12-08T02:47:11;0.90;99.90
19397;DHT22;9834;48.076;11.878;2022-12-08T02:49:40;0.90;99.90
19397;DHT22;9834;48.076;11.878;2022-12-08T02:55:21;0.90;99.90
19397;DHT22;9834;48.076;11.878;2022-12-08T02:58:18;0.80;99.90
19397;DHT22;9834;48.076;11.878;2022-12-08T03:00:58;0.90;99.90
19397;DHT22;9834;48.076;11.878;2022-12-08T03:03:39;0.90;99.90
19397;DHT22;9834;48.076;11.878;2022-12-08T03:06:17;0.90;99.90
19397;DHT22;9834;48.076;11.878;2022-12-08T03:08:53;0.90;99.90
19397;DHT22;9834;48.076;11.878;2022-12-08T03:11:24;0.90;99.90
19397;DHT22;9834;48.076;11.878;2022-12-08T03:13:57;0.90;99.90
19397;DHT22;9834;48.076;11.878;2022-12-08T03:16:26;0.90;99.90
19397;DHT22;9834;48.076;11.878;2022-12-08T03:18:59;0.90;99.90
19397;DHT22;9834;48.076;11.878;2022-12-08T03:21:29;0.90;99.90
19397;DHT22;9834;48.076;11.878;2022-12-08T03:24:01;0.90;99.90
19397;DHT22;9834;48.076;11.878;2022-12-08T03:26:33;0.90;99.90
19397;DHT22;9834;48.076;11.878;2022-12-08T03:29:02;0.90;99.90
19397;DHT22;9834;48.076;11.878;2022-12-08T03:31:32;0.90;99.90
19397;DHT22;9834;48.076;11.878;2022-12-08T03:34:02;0.80;99.90
19397;DHT22;9834;48.076;11.878;2022-12-08T03:36:31;0.90;99.90
19397;DHT22;9834;48.076;11.878;2022-12-08T03:38:59;0.90;99.90
19397;DHT22;9834;48.076;11.878;2022-12-08T03:41:26;0.90;99.90
19397;DHT22;9834;48.076;11.878;2022-12-08T03:43:55;0.90;99.90
19397;DHT22;9834;48.076;11.878;2022-12-08T03:46:24;0.90;99.90
19397;DHT22;9834;48.076;11.878;2022-12-08T03:48:51;0.90;99.90
19397;DHT22;9834;48.076;11.878;2022-12-08T03:51:18;0.90;99.90
19397;DHT22;9834;48.076;11.878;2022-12-08T03:53:48;0.90;99.90
19397;DHT22;9834;48.076;11.878;2022-12-08T03:56:18;0.90;99.90
19397;DHT22;9834;48.076;11.878;2022-12-08T03:58:45;0.90;99.90
19397;DHT22;9834;48.076;11.878;2022-12-08T04:01:12;0.90;99.90
19397;DHT22;9834;48.076;11.878;2022-12-08T04:03:40;0.90;99.90
19397;DHT22;9834;48.076;11.878;2022-12-08T04:06:07;0.90;99.90
19397;DHT22;9834;48.076;11.878;2022-12-08T04:08:34;0.90;99.90
19397;DHT22;9834;48.076;11.878;2022-12-08T04:11:03;0.80;99.90
19397;DHT22;9834;48.076;11.878;2022-12-08T04:13:31;0.90;99.90
19397;DHT22;9834;48.076;11.878;2022-12-08T04:15:57;0.90;99.90
19397;DHT22;9834;48.076;11.878;2022-12-08T04:18:24;0.90;99.90
19397;DHT22;9834;48.076;11.878;2022-12-08T04:20:52;0.90;99.90
19397;DHT22;9834;48.076;11.878;2022-12-08T04:23:18;0.90;99.90
19397;DHT22;9834;48.076;11.878;2022-12-08T04:25:45;0.90;99.90
19397;DHT22;9834;48.076;11.878;2022-12-08T04:28:14;0.80;99.90
19397;DHT22;9834;48.076;11.878;2022-12-08T04:30:41;0.80;99.90
19397;DHT22;9834;48.076;11.878;2022-12-08T04:33:08;0.80;99.90
19397;DHT22;9834;48.076;11.878;2022-12-08T04:35:35;0.80;99.90
19397;DHT22;9834;48.076;11.878;2022-12-08T04:38:02;0.80;99.90
19397;DHT22;9834;48.076;11.878;2022-12-08T04:40:28;0.80;99.90
19397;DHT22;9834;48.076;11.878;2022-12-08T04:42:55;0.80;99.90
19397;DHT22;9834;48.076;11.878;2022-12-08T04:45:24;0.80;99.90
19397;DHT22;9834;48.076;11.878;2022-12-08T04:47:51;0.80;99.90
19397;DHT22;9834;48.076;11.878;2022-12-08T04:50:18;0.70;99.90
19397;DHT22;9834;48.076;11.878;2022-12-08T04:52:45;0.70;99.90
19397;DHT22;9834;48.076;11.878;2022-12-08T04:55:11;0.70;99.90
19397;DHT22;9834;48.076;11.878;2022-12-08T04:57:39;0.60;99.90
19397;DHT22;9834;48.076;11.878;2022-12-08T05:00:07;0.50;99.90
19397;DHT22;9834;48.076;11.878;2022-12-08T05:02:37;0.50;99.90
19397;DHT22;9834;48.076;11.878;2022-12-08T05:05:05;0.40;99.90
19397;DHT22;9834;48.076;11.878;2022-12-08T05:07:33;0.40;99.90
19397;DHT22;9834;48.076;11.878;2022-12-08T05:10:00;0.30;99.90
19397;DHT22;9834;48.076;11.878;2022-12-08T05:12:29;0.30;99.90
19397;DHT22;9834;48.076;11.878;2022-12-08T05:14:55;0.30;99.90
19397;DHT22;9834;48.076;11.878;2022-12-08T05:17:22;0.30;99.90
19397;DHT22;9834;48.076;11.878;2022-12-08T05:19:53;0.30;99.90
19397;DHT22;9834;48.076;11.878;2022-12-08T05:22:20;0.30;99.90
19397;DHT22;9834;48.076;11.878;2022-12-08T05:24:50;0.30;99.90
19397;DHT22;9834;48.076;11.878;2022-12-08T05:27:17;0.30;99.90
19397;DHT22;9834;48.076;11.878;2022-12-08T05:29:44;0.30;99.90
19397;DHT22;9834;48.076;11.878;2022-12-08T05:32:12;0.30;99.90
19397;DHT22;9834;48.076;11.878;2022-12-08T05:34:39;0.30;99.90
19397;DHT22;9834;48.076;11.878;2022-12-08T05:37:08;0.30;99.90
19397;DHT22;9834;48.076;11.878;2022-12-08T05:39:35;0.30;99.90
19397;DHT22;9834;48.076;11.878;2022-12-08T05:42:02;0.30;99.90
19397;DHT22;9834;48.076;11.878;2022-12-08T05:44:29;0.30;99.90
19397;DHT22;9834;48.076;11.878;2022-12-08T05:46:56;0.30;99.90
19397;DHT22;9834;48.076;11.878;2022-12-08T05:49:28;0.30;99.90
19397;DHT22;9834;48.076;11.878;2022-12-08T05:51:55;0.20;99.90
19397;DHT22;9834;48.076;11.878;2022-12-08T05:54:23;0.20;99.90
19397;DHT22;9834;48.076;11.878;2022-12-08T05:56:50;0.20;99.90
19397;DHT22;9834;48.076;11.878;2022-12-08T05:59:17;0.20;99.90
19397;DHT22;9834;48.076;11.878;2022-12-08T06:01:44;0.10;99.90
19397;DHT22;9834;48.076;11.878;2022-12-08T06:04:11;0.10;99.90
19397;DHT22;9834;48.076;11.878;2022-12-08T06:06:38;0.10;99.90
19397;DHT22;9834;48.076;11.878;2022-12-08T06:09:05;0.10;99.90
19397;DHT22;9834;48.076;11.878;2022-12-08T06:11:35;0.00;99.90
19397;DHT22;9834;48.076;11.878;2022-12-08T06:14:03;-0.10;99.90
19397;DHT22;9834;48.076;11.878;2022-12-08T06:16:31;-0.10;99.90
19397;DHT22;9834;48.076;11.878;2022-12-08T06:18:58;-0.10;99.90
19397;DHT22;9834;48.076;11.878;2022-12-08T06:21:25;-0.10;99.90
19397;DHT22;9834;48.076;11.878;2022-12-08T06:23:53;-0.20;99.90
19397;DHT22;9834;48.076;11.878;2022-12-08T06:26:20;-0.20;99.90
19397;DHT22;9834;48.076;11.878;2022-12-08T06:28:49;-0.30;99.90
19397;DHT22;9834;48.076;11.878;2022-12-08T06:31:19;-0.30;99.90
19397;DHT22;9834;48.076;11.878;2022-12-08T06:33:46;-0.30;99.90
19397;DHT22;9834;48.076;11.878;2022-12-08T06:36:15;-0.40;99.90
19397;DHT22;9834;48.076;11.878;2022-12-08T06:38:42;-0.40;99.90
19397;DHT22;9834;48.076;11.878;2022-12-08T06:41:10;-0.40;99.90
19397;DHT22;9834;48.076;11.878;2022-12-08T06:43:38;-0.50;99.90
19397;DHT22;9834;48.076;11.878;2022-12-08T06:46:09;-0.50;99.90
19397;DHT22;9834;48.076;11.878;2022-12-08T06:48:36;-0.60;99.90
19397;DHT22;9834;48.076;11.878;2022-12-08T06:51:09;-0.60;99.90
19397;DHT22;9834;48.076;11.878;2022-12-08T06:53:37;-0.70;99.90
19397;DHT22;9834;48.076;11.878;2022-12-08T06:56:05;-0.70;99.90
19397;DHT22;9834;48.076;11.878;2022-12-08T06:58:32;-0.80;99.90
19397;DHT22;9834;48.076;11.878;2022-12-08T07:01:05;-0.80;99.90
19397;DHT22;9834;48.076;11.878;2022-12-08T07:03:33;-0.80;99.90
19397;DHT22;9834;48.076;11.878;2022-12-08T07:06:00;-0.80;99.90
19397;DHT22;9834;48.076;11.878;2022-12-08T07:08:26;-0.80;99.90
19397;DHT22;9834;48.076;11.878;2022-12-08T07:10:53;-0.90;99.90
19397;DHT22;9834;48.076;11.878;2022-12-08T07:13:20;-0.90;99.90
19397;DHT22;9834;48.076;11.878;2022-12-08T07:15:47;-0.90;99.90
19397;DHT22;9834;48.076;11.878;2022-12-08T07:18:16;-1.00;99.90
19397;DHT22;9834;48.076;11.878;2022-12-08T07:20:42;-1.00;99.90
19397;DHT22;9834;48.076;11.878;2022-12-08T07:23:09;-1.00;99.90
19397;DHT22;9834;48.076;11.878;2022-12-08T07:25:36;-1.00;99.90
19397;DHT22;9834;48.076;11.878;2022-12-08T07:28:08;-0.90;99.90
19397;DHT22;9834;48.076;11.878;2022-12-08T07:30:35;-0.90;99.90
19397;DHT22;9834;48.076;11.878;2022-12-08T07:33:03;-0.80;99.90
19397;DHT22;9834;48.076;11.878;2022-12-08T07:35:31;-0.80;99.90
19397;DHT22;9834;48.076;11.878;2022-12-08T07:37:58;-0.80;99.90
19397;DHT22;9834;48.076;11.878;2022-12-08T07:40:25;-0.70;99.90
19397;DHT22;9834;48.076;11.878;2022-12-08T07:42:52;-0.80;99.90
19397;DHT22;9834;48.076;11.878;2022-12-08T07:45:19;-0.70;99.90
19397;DHT22;9834;48.076;11.878;2022-12-08T07:47:46;-0.70;99.90
19397;DHT22;9834;48.076;11.878;2022-12-08T07:50:13;-0.50;99.90
19397;DHT22;9834;48.076;11.878;2022-12-08T07:52:41;-0.60;99.90
19397;DHT22;9834;48.076;11.878;2022-12-08T07:55:08;-0.50;99.90
19397;DHT22;9834;48.076;11.878;2022-12-08T07:57:35;-0.50;99.90
19397;DHT22;9834;48.076;11.878;2022-12-08T08:00:03;-0.40;99.90
19397;DHT22;9834;48.076;11.878;2022-12-08T08:02:30;-0.40;99.90
19397;DHT22;9834;48.076;11.878;2022-12-08T08:04:57;-0.30;99.90
19397;DHT22;9834;48.076;11.878;2022-12-08T08:07:24;-0.20;99.90
19397;DHT22;9834;48.076;11.878;2022-12-08T08:09:53;-0.20;99.90
19397;DHT22;9834;48.076;11.878;2022-12-08T08:12:19;-0.10;99.90
19397;DHT22;9834;48.076;11.878;2022-12-08T08:14:46;0.00;99.90
19397;DHT22;9834;48.076;11.878;2022-12-08T08:17:13;0.00;99.90
19397;DHT22;9834;48.076;11.878;2022-12-08T08:19:40;0.10;99.90
19397;DHT22;9834;48.076;11.878;2022-12-08T08:22:07;0.20;99.90
19397;DHT22;9834;48.076;11.878;2022-12-08T08:24:34;0.20;99.90
19397;DHT22;9834;48.076;11.878;2022-12-08T08:27:02;0.30;99.90
19397;DHT22;9834;48.076;11.878;2022-12-08T08:29:29;0.30;99.90
19397;DHT22;9834;48.076;11.878;2022-12-08T08:31:56;0.50;99.90
19397;DHT22;9834;48.076;11.878;2022-12-08T08:34:23;0.50;99.90
19397;DHT22;9834;48.076;11.878;2022-12-08T08:36:50;0.60;99.90
19397;DHT22;9834;48.076;11.878;2022-12-08T08:39:17;0.70;99.90
19397;DHT22;9834;48.076;11.878;2022-12-08T08:41:44;0.80;99.90
19397;DHT22;9834;48.076;11.878;2022-12-08T08:44:14;0.90;99.90
19397;DHT22;9834;48.076;11.878;2022-12-08T08:46:41;1.00;99.90
19397;DHT22;9834;48.076;11.878;2022-12-08T08:49:08;1.10;99.90
19397;DHT22;9834;48.076;11.878;2022-12-08T08:51:35;1.30;99.90
19397;DHT22;9834;48.076;11.878;2022-12-08T08:54:02;1.40;99.90
19397;DHT22;9834;48.076;11.878;2022-12-08T08:56:29;1.60;99.90
19397;DHT22;9834;48.076;11.878;2022-12-08T08:58:56;1.70;99.90
19397;DHT22;9834;48.076;11.878;2022-12-08T09:01:26;1.80;99.90
19397;DHT22;9834;48.076;11.878;2022-12-08T09:03:54;2.00;99.90
19397;DHT22;9834;48.076;11.878;2022-12-08T09:06:21;2.20;99.90
19397;DHT22;9834;48.076;11.878;2022-12-08T09:08:49;2.30;99.90
19397;DHT22;9834;48.076;11.878;2022-12-08T09:11:16;2.40;99.90
19397;DHT22;9834;48.076;11.878;2022-12-08T09:13:46;2.60;99.90
19397;DHT22;9834;48.076;11.878;2022-12-08T09:16:13;2.80;99.90
19397;DHT22;9834;48.076;11.878;2022-12-08T09:18:42;2.90;99.90
19397;DHT22;9834;48.076;11.878;2022-12-08T09:21:12;3.00;99.90
19397;DHT22;9834;48.076;11.878;2022-12-08T09:23:41;3.20;99.90
19397;DHT22;9834;48.076;11.878;2022-12-08T09:26:08;3.40;99.90
19397;DHT22;9834;48.076;11.878;2022-12-08T09:28:35;3.50;99.90
19397;DHT22;9834;48.076;11.878;2022-12-08T09:31:02;3.60;99.90
19397;DHT22;9834;48.076;11.878;2022-12-08T09:33:29;3.70;99.90
19397;DHT22;9834;48.076;11.878;2022-12-08T09:36:02;3.80;99.90
19397;DHT22;9834;48.076;11.878;2022-12-08T09:38:29;3.90;99.90
19397;DHT22;9834;48.076;11.878;2022-12-08T09:40:57;4.00;99.90
19397;DHT22;9834;48.076;11.878;2022-12-08T09:43:47;4.20;99.90
19397;DHT22;9834;48.076;11.878;2022-12-08T09:46:17;4.30;99.90
19397;DHT22;9834;48.076;11.878;2022-12-08T09:48:48;4.40;99.90
19397;DHT22;9834;48.076;11.878;2022-12-08T09:51:22;4.50;99.90
19397;DHT22;9834;48.076;11.878;2022-12-08T09:53:54;4.60;99.90
19397;DHT22;9834;48.076;11.878;2022-12-08T09:56:23;4.70;99.90
19397;DHT22;9834;48.076;11.878;2022-12-08T09:58:54;4.60;99.90
19397;DHT22;9834;48.076;11.878;2022-12-08T10:01:25;4.70;99.90
19397;DHT22;9834;48.076;11.878;2022-12-08T10:03:53;4.80;99.90
19397;DHT22;9834;48.076;11.878;2022-12-08T10:06:27;4.90;99.90
19397;DHT22;9834;48.076;11.878;2022-12-08T10:09:04;4.90;99.90
19397;DHT22;9834;48.076;11.878;2022-12-08T10:11:39;4.80;99.90
19397;DHT22;9834;48.076;11.878;2022-12-08T10:14:17;4.80;99.90
19397;DHT22;9834;48.076;11.878;2022-12-08T10:16:48;4.80;99.90
19397;DHT22;9834;48.076;11.878;2022-12-08T10:19:20;4.70;99.90
19397;DHT22;9834;48.076;11.878;2022-12-08T10:21:49;4.60;99.90
19397;DHT22;9834;48.076;11.878;2022-12-08T10:24:21;4.40;99.90
19397;DHT22;9834;48.076;11.878;2022-12-08T10:26:49;4.30;99.90
19397;DHT22;9834;48.076;11.878;2022-12-08T10:29:16;4.20;99.90
19397;DHT22;9834;48.076;11.878;2022-12-08T10:31:43;4.20;99.90
19397;DHT22;9834;48.076;11.878;2022-12-08T10:34:15;4.20;99.90
19397;DHT22;9834;48.076;11.878;2022-12-08T10:36:49;4.30;99.90
19397;DHT22;9834;48.076;11.878;2022-12-08T10:39:33;4.40;99.90
19397;DHT22;9834;48.076;11.878;2022-12-08T10:44:53;4.50;99.90
19397;DHT22;9834;48.076;11.878;2022-12-08T10:47:23;4.50;99.90
19397;DHT22;9834;48.076;11.878;2022-12-08T10:50:16;4.60;99.90
19397;DHT22;9834;48.076;11.878;2022-12-08T10:52:46;4.50;99.90
19397;DHT22;9834;48.076;11.878;2022-12-08T10:55:20;4.50;99.90
19397;DHT22;9834;48.076;11.878;2022-12-08T10:57:47;4.50;99.90
19397;DHT22;9834;48.076;11.878;2022-12-08T11:00:19;4.70;99.90
19397;DHT22;9834;48.076;11.878;2022-12-08T11:02:53;4.70;99.90
19397;DHT22;9834;48.076;11.878;2022-12-08T11:05:22;4.80;99.90
19397;DHT22;9834;48.076;11.878;2022-12-08T11:07:54;4.90;99.90
19397;DHT22;9834;48.076;11.878;2022-12-08T11:10:29;5.00;99.90
19397;DHT22;9834;48.076;11.878;2022-12-08T11:12:59;5.00;99.90
19397;DHT22;9834;48.076;11.878;2022-12-08T11:15:32;5.10;99.90
19397;DHT22;9834;48.076;11.878;2022-12-08T11:18:07;5.30;99.90
19397;DHT22;9834;48.076;11.878;2022-12-08T11:20:39;5.40;99.90
19397;DHT22;9834;48.076;11.878;2022-12-08T11:23:19;5.50;99.90
19397;DHT22;9834;48.076;11.878;2022-12-08T11:25:49;5.60;99.90
19397;DHT22;9834;48.076;11.878;2022-12-08T11:28:22;5.60;99.90
19397;DHT22;9834;48.076;11.878;2022-12-08T11:30:55;5.70;99.90
19397;DHT22;9834;48.076;11.878;2022-12-08T11:33:25;5.60;99.90
19397;DHT22;9834;48.076;11.878;2022-12-08T11:35:56;5.60;99.90
19397;DHT22;9834;48.076;11.878;2022-12-08T11:38:27;5.80;99.90
19397;DHT22;9834;48.076;11.878;2022-12-08T11:40:57;6.00;99.90
19397;DHT22;9834;48.076;11.878;2022-12-08T11:43:33;6.10;99.90
19397;DHT22;9834;48.076;11.878;2022-12-08T11:46:07;6.50;99.90
19397;DHT22;9834;48.076;11.878;2022-12-08T11:48:38;6.80;98.90
19397;DHT22;9834;48.076;11.878;2022-12-08T11:51:12;7.10;96.50
19397;DHT22;9834;48.076;11.878;2022-12-08T11:53:46;7.10;94.50
19397;DHT22;9834;48.076;11.878;2022-12-08T11:56:19;7.10;94.80
19397;DHT22;9834;48.076;11.878;2022-12-08T11:58:48;7.10;94.80
19397;DHT22;9834;48.076;11.878;2022-12-08T12:01:20;7.00;94.90
19397;DHT22;9834;48.076;11.878;2022-12-08T12:03:57;7.10;96.30
19397;DHT22;9834;48.076;11.878;2022-12-08T12:06:52;7.20;95.40
19397;DHT22;9834;48.076;11.878;2022-12-08T12:09:31;7.60;95.00
19397;DHT22;9834;48.076;11.878;2022-12-08T12:12:10;7.80;92.90
19397;DHT22;9834;48.076;11.878;2022-12-08T12:17:45;8.10;92.70
19397;DHT22;9834;48.076;11.878;2022-12-08T12:20:18;8.50;92.40
19397;DHT22;9834;48.076;11.878;2022-12-08T12:22:48;8.60;91.40
19397;DHT22;9834;48.076;11.878;2022-12-08T12:25:21;8.20;91.70
19397;DHT22;9834;48.076;11.878;2022-12-08T12:27:50;7.80;92.10
19397;DHT22;9834;48.076;11.878;2022-12-08T12:30:20;7.50;93.80
19397;DHT22;9834;48.076;11.878;2022-12-08T12:32:52;7.30;93.40
19397;DHT22;9834;48.076;11.878;2022-12-08T12:35:28;7.10;95.10
19397;DHT22;9834;48.076;11.878;2022-12-08T12:37:59;7.10;96.20
19397;DHT22;9834;48.076;11.878;2022-12-08T12:40:36;7.00;95.00
19397;DHT22;9834;48.076;11.878;2022-12-08T12:43:26;7.10;95.30
19397;DHT22;9834;48.076;11.878;2022-12-08T12:51:59;6.90;94.80
19397;DHT22;9834;48.076;11.878;2022-12-08T12:54:27;6.80;92.40
19397;DHT22;9834;48.076;11.878;2022-12-08T12:56:58;6.50;93.30
19397;DHT22;9834;48.076;11.878;2022-12-08T12:59:43;6.50;94.30
19397;DHT22;9834;48.076;11.878;2022-12-08T13:02:21;6.70;93.50
19397;DHT22;9834;48.076;11.878;2022-12-08T13:04:56;6.80;94.40
19397;DHT22;9834;48.076;11.878;2022-12-08T13:07:26;6.80;95.10
19397;DHT22;9834;48.076;11.878;2022-12-08T13:09:57;6.80;94.50
19397;DHT22;9834;48.076;11.878;2022-12-08T13:12:26;6.80;93.40
19397;DHT22;9834;48.076;11.878;2022-12-08T13:14:58;7.40;90.60
19397;DHT22;9834;48.076;11.878;2022-12-08T13:17:28;7.90;88.50
19397;DHT22;9834;48.076;11.878;2022-12-08T13:19:57;8.10;84.80
19397;DHT22;9834;48.076;11.878;2022-12-08T13:23:10;8.30;85.10
19397;DHT22;9834;48.076;11.878;2022-12-08T13:25:49;8.80;82.50
19397;DHT22;9834;48.076;11.878;2022-12-08T13:28:24;9.30;80.60
19397;DHT22;9834;48.076;11.878;2022-12-08T13:30:52;9.50;78.90
19397;DHT22;9834;48.076;11.878;2022-12-08T13:33:31;10.00;76.20
19397;DHT22;9834;48.076;11.878;2022-12-08T13:36:16;10.40;71.10
19397;DHT22;9834;48.076;11.878;2022-12-08T13:38:46;9.80;73.00
19397;DHT22;9834;48.076;11.878;2022-12-08T13:41:17;9.20;72.20
19397;DHT22;9834;48.076;11.878;2022-12-08T13:43:51;8.80;72.70
19397;DHT22;9834;48.076;11.878;2022-12-08T13:46:30;8.60;72.50
19397;DHT22;9834;48.076;11.878;2022-12-08T13:48:58;9.10;70.80
19397;DHT22;9834;48.076;11.878;2022-12-08T13:51:29;9.40;69.50
19397;DHT22;9834;48.076;11.878;2022-12-08T13:54:05;9.70;69.20
19397;DHT22;9834;48.076;11.878;2022-12-08T13:56:39;10.50;65.80
19397;DHT22;9834;48.076;11.878;2022-12-08T13:59:23;11.20;64.50
19397;DHT22;9834;48.076;11.878;2022-12-08T14:01:52;11.00;63.20
19397;DHT22;9834;48.076;11.878;2022-12-08T14:04:22;10.30;64.80
19397;DHT22;9834;48.076;11.878;2022-12-08T14:06:51;9.70;66.50
19397;DHT22;9834;48.076;11.878;2022-12-08T14:09:21;8.90;68.80
19397;DHT22;9834;48.076;11.878;2022-12-08T14:11:53;8.30;72.10
19397;DHT22;9834;48.076;11.878;2022-12-08T14:14:26;8.00;74.80
19397;DHT22;9834;48.076;11.878;2022-12-08T14:16:55;7.50;73.30
19397;DHT22;9834;48.076;11.878;2022-12-08T14:19:23;7.10;75.70
19397;DHT22;9834;48.076;11.878;2022-12-08T14:21:55;6.60;78.80
19397;DHT22;9834;48.076;11.878;2022-12-08T14:24:23;6.20;81.00
19397;DHT22;9834;48.076;11.878;2022-12-08T14:26:52;5.90;81.50
19397;DHT22;9834;48.076;11.878;2022-12-08T14:29:35;5.50;83.90
19397;DHT22;9834;48.076;11.878;2022-12-08T14:32:03;5.20;86.00
19397;DHT22;9834;48.076;11.878;2022-12-08T14:34:34;5.00;87.90
19397;DHT22;9834;48.076;11.878;2022-12-08T14:37:08;4.80;89.10
19397;DHT22;9834;48.076;11.878;2022-12-08T14:39:36;4.70;90.80
19397;DHT22;9834;48.076;11.878;2022-12-08T14:42:05;4.50;92.30
19397;DHT22;9834;48.076;11.878;2022-12-08T14:44:37;4.40;93.10
19397;DHT22;9834;48.076;11.878;2022-12-08T14:47:07;4.30;95.10
19397;DHT22;9834;48.076;11.878;2022-12-08T14:49:36;4.10;95.90
19397;DHT22;9834;48.076;11.878;2022-12-08T14:52:08;4.00;97.20
19397;DHT22;9834;48.076;11.878;2022-12-08T14:54:37;3.90;98.10
19397;DHT22;9834;48.076;11.878;2022-12-08T14:57:05;3.80;98.80
19397;DHT22;9834;48.076;11.878;2022-12-08T14:59:35;3.70;99.90
19397;DHT22;9834;48.076;11.878;2022-12-08T15:02:12;3.60;99.90
19397;DHT22;9834;48.076;11.878;2022-12-08T15:04:53;3.50;99.90
19397;DHT22;9834;48.076;11.878;2022-12-08T15:07:21;3.30;99.90
19397;DHT22;9834;48.076;11.878;2022-12-08T15:10:07;3.20;99.90
19397;DHT22;9834;48.076;11.878;2022-12-08T15:12:35;3.00;99.90
19397;DHT22;9834;48.076;11.878;2022-12-08T15:15:14;2.90;99.90
19397;DHT22;9834;48.076;11.878;2022-12-08T15:17:43;2.80;99.90
19397;DHT22;9834;48.076;11.878;2022-12-08T15:20:25;2.60;99.90
19397;DHT22;9834;48.076;11.878;2022-12-08T15:22:53;2.50;99.90
19397;DHT22;9834;48.076;11.878;2022-12-08T15:25:22;2.40;99.90
19397;DHT22;9834;48.076;11.878;2022-12-08T15:27:50;2.30;99.90
19397;DHT22;9834;48.076;11.878;2022-12-08T15:30:19;2.10;99.90
19397;DHT22;9834;48.076;11.878;2022-12-08T15:32:46;2.00;99.90
19397;DHT22;9834;48.076;11.878;2022-12-08T15:35:16;1.90;99.90
19397;DHT22;9834;48.076;11.878;2022-12-08T15:37:43;1.80;99.90
19397;DHT22;9834;48.076;11.878;2022-12-08T15:40:15;1.60;99.90
19397;DHT22;9834;48.076;11.878;2022-12-08T15:42:42;1.60;99.90
19397;DHT22;9834;48.076;11.878;2022-12-08T15:45:11;1.40;99.90
19397;DHT22;9834;48.076;11.878;2022-12-08T15:47:41;1.30;99.90
19397;DHT22;9834;48.076;11.878;2022-12-08T15:50:14;1.20;99.90
19397;DHT22;9834;48.076;11.878;2022-12-08T15:52:42;1.10;99.90
19397;DHT22;9834;48.076;11.878;2022-12-08T15:55:11;1.00;99.90
19397;DHT22;9834;48.076;11.878;2022-12-08T15:57:39;0.90;99.90
19397;DHT22;9834;48.076;11.878;2022-12-08T16:00:27;0.80;99.90
19397;DHT22;9834;48.076;11.878;2022-12-08T16:03:08;0.70;99.90
19397;DHT22;9834;48.076;11.878;2022-12-08T16:05:44;0.70;99.90
19397;DHT22;9834;48.076;11.878;2022-12-08T16:08:13;0.60;99.90
19397;DHT22;9834;48.076;11.878;2022-12-08T16:10:41;0.60;99.90
19397;DHT22;9834;48.076;11.878;2022-12-08T16:13:13;0.40;99.90
19397;DHT22;9834;48.076;11.878;2022-12-08T16:15:58;0.30;99.90
19397;DHT22;9834;48.076;11.878;2022-12-08T16:18:29;0.20;99.90
19397;DHT22;9834;48.076;11.878;2022-12-08T16:20:57;0.10;99.90
19397;DHT22;9834;48.076;11.878;2022-12-08T16:23:24;0.00;99.90